createdAt,value
2023-02-27T00:00:35.850Z,102224.09
2023-02-27T00:03:02.351Z,102225.84
2023-02-27T00:05:28.867Z,102226.72
2023-02-27T00:07:55.362Z,102224.09
2023-02-27T00:10:22.217Z,102218.22
2023-02-27T00:12:48.789Z,102236.16
2023-02-27T00:15:18.366Z,102237.03
2023-02-27T00:17:45.238Z,102228.50
2023-02-27T00:20:14.999Z,102215.72
2023-02-27T00:22:42.283Z,102226.84
2023-02-27T00:25:09.465Z,102233.66
2023-02-27T00:27:36.994Z,102232.81
2023-02-27T00:30:08.914Z,102231.94
2023-02-27T00:32:36.771Z,102232.81
2023-02-27T00:35:09.025Z,102238.78
2023-02-27T00:37:35.815Z,102226.84
2023-02-27T00:40:02.447Z,102237.97
2023-02-27T00:42:30.862Z,102245.72
2023-02-27T00:44:57.386Z,102242.28
2023-02-27T00:47:23.956Z,102244.00
2023-02-27T00:49:50.583Z,102230.34
2023-02-27T00:52:17.063Z,102233.81
2023-02-27T00:54:43.678Z,102235.56
2023-02-27T00:57:10.096Z,102229.59
2023-02-27T00:59:36.637Z,102242.44
2023-02-27T01:02:03.158Z,102215.16
2023-02-27T01:04:29.637Z,102235.66
2023-02-27T01:06:56.177Z,102224.63
2023-02-27T01:09:22.744Z,102229.75
2023-02-27T01:11:49.278Z,102236.63
2023-02-27T01:14:15.698Z,102229.81
2023-02-27T01:16:42.265Z,102235.81
2023-02-27T01:19:08.969Z,102226.41
2023-02-27T01:21:35.444Z,102229.88
2023-02-27T01:24:02.366Z,102225.56
2023-02-27T01:26:29.042Z,102224.75
2023-02-27T01:28:55.523Z,102216.25
2023-02-27T01:31:21.972Z,102228.19
2023-02-27T01:33:49.058Z,102223.06
2023-02-27T01:36:15.569Z,102218.81
2023-02-27T01:38:42.082Z,102212.84
2023-02-27T01:41:08.640Z,102199.19
2023-02-27T01:43:53.352Z,102219.66
2023-02-27T01:46:19.832Z,102206.91
2023-02-27T01:48:46.510Z,102223.97
2023-02-27T01:51:21.047Z,102212.88
2023-02-27T01:53:53.242Z,102223.13
2023-02-27T01:56:29.961Z,102230.84
2023-02-27T01:59:03.508Z,102230.84
2023-02-27T02:01:32.287Z,102232.53
2023-02-27T02:04:26.353Z,102233.41
2023-02-27T02:07:01.024Z,102228.28
2023-02-27T02:09:29.480Z,102226.56
2023-02-27T02:11:57.719Z,102241.97
2023-02-27T02:14:24.312Z,102222.31
2023-02-27T02:17:05.635Z,102227.44
2023-02-27T02:19:47.321Z,102225.75
2023-02-27T02:22:38.152Z,102226.63
2023-02-27T02:25:42.193Z,102216.41
2023-02-27T02:28:35.574Z,102223.25
2023-02-27T02:31:17.395Z,102228.41
2023-02-27T02:34:03.949Z,102218.16
2023-02-27T02:36:51.080Z,102216.47
2023-02-27T02:39:25.684Z,102212.22
2023-02-27T02:42:02.755Z,102224.19
2023-02-27T02:44:50.362Z,102220.78
2023-02-27T02:47:38.285Z,102216.53
2023-02-27T02:50:22.265Z,102222.50
2023-02-27T02:53:18.143Z,102213.13
2023-02-27T02:55:51.228Z,102223.41
2023-02-27T02:58:49.512Z,102215.72
2023-02-27T03:01:34.723Z,102234.50
2023-02-27T03:04:12.889Z,102222.56
2023-02-27T03:06:52.460Z,102221.69
2023-02-27T03:09:27.018Z,102225.97
2023-02-27T03:11:55.166Z,102238.81
2023-02-27T03:14:21.505Z,102243.06
2023-02-27T03:16:53.347Z,102229.41
2023-02-27T03:19:25.560Z,102229.41
2023-02-27T03:22:09.346Z,102236.25
2023-02-27T03:24:53.964Z,102232.00
2023-02-27T03:27:22.232Z,102237.16
2023-02-27T03:30:05.707Z,102254.22
2023-02-27T03:32:56.368Z,102233.75
2023-02-27T03:35:29.344Z,102264.50
2023-02-27T03:38:04.986Z,102248.28
2023-02-27T03:41:08.068Z,102261.09
2023-02-27T03:43:48.331Z,102265.38
2023-02-27T03:46:19.939Z,102260.25
2023-02-27T03:48:47.138Z,102249.16
2023-02-27T03:51:17.110Z,102261.09
2023-02-27T03:54:16.774Z,102270.53
2023-02-27T03:57:03.134Z,102269.66
2023-02-27T03:59:30.856Z,102270.53
2023-02-27T04:01:58.759Z,102266.25
2023-02-27T04:04:28.817Z,102268.81
2023-02-27T04:07:20.332Z,102265.38
2023-02-27T04:10:15.072Z,102275.66
2023-02-27T04:12:50.768Z,102280.78
2023-02-27T04:15:29.153Z,102284.19
2023-02-27T04:18:19.033Z,102275.66
2023-02-27T04:20:53.133Z,102289.31
2023-02-27T04:23:33.914Z,102282.47
2023-02-27T04:26:17.307Z,102293.56
2023-02-27T04:29:18.633Z,102290.16
2023-02-27T04:31:54.641Z,102290.16
2023-02-27T04:34:30.024Z,102283.34
2023-02-27T04:37:02.101Z,102280.78
2023-02-27T04:39:34.368Z,102266.25
2023-02-27T04:42:10.280Z,102275.66
2023-02-27T04:44:39.026Z,102279.91
2023-02-27T04:47:08.529Z,102277.34
2023-02-27T04:49:40.482Z,102283.31
2023-02-27T04:52:15.971Z,102283.34
2023-02-27T04:54:59.790Z,102281.59
2023-02-27T04:57:41.235Z,102285.03
2023-02-27T05:00:12.030Z,102286.72
2023-02-27T05:02:43.725Z,102294.41
2023-02-27T05:05:16.555Z,102291.00
2023-02-27T05:07:50.538Z,102299.53
2023-02-27T05:10:29.434Z,102304.63
2023-02-27T05:13:05.585Z,102303.75
2023-02-27T05:15:38.961Z,102305.47
2023-02-27T05:18:09.135Z,102313.16
2023-02-27T05:20:47.859Z,102309.72
2023-02-27T05:23:44.865Z,102306.31
2023-02-27T05:26:20.260Z,102302.91
2023-02-27T05:28:55.288Z,102300.28
2023-02-27T05:31:28.876Z,102308.84
2023-02-27T05:34:28.831Z,102300.28
2023-02-27T05:37:18.653Z,102295.16
2023-02-27T05:39:48.062Z,102301.97
2023-02-27T05:42:26.798Z,102319.00
2023-02-27T05:45:04.011Z,102325.84
2023-02-27T05:47:34.504Z,102324.13
2023-02-27T05:50:13.839Z,102288.25
2023-02-27T05:52:42.655Z,102322.41
2023-02-27T05:55:18.711Z,102316.44
2023-02-27T05:57:57.375Z,102324.97
2023-02-27T06:00:48.348Z,102326.69
2023-02-27T06:03:15.048Z,102330.06
2023-02-27T06:05:46.745Z,102333.47
2023-02-27T06:08:13.211Z,102334.31
2023-02-27T06:10:39.726Z,102327.50
2023-02-27T06:13:06.221Z,102320.63
2023-02-27T06:15:32.682Z,102343.72
2023-02-27T06:17:59.165Z,102338.59
2023-02-27T06:20:25.637Z,102322.31
2023-02-27T06:22:52.085Z,102357.31
2023-02-27T06:25:18.493Z,102359.03
2023-02-27T06:27:44.952Z,102365.84
2023-02-27T06:30:11.989Z,102364.13
2023-02-27T06:32:38.435Z,102364.97
2023-02-27T06:35:06.474Z,102359.84
2023-02-27T06:37:33.229Z,102361.53
2023-02-27T06:39:59.669Z,102358.97
2023-02-27T06:42:26.872Z,102368.38
2023-02-27T06:44:53.372Z,102356.38
2023-02-27T06:47:19.889Z,102374.34
2023-02-27T06:49:46.376Z,102376.13
2023-02-27T06:52:12.873Z,102371.97
2023-02-27T06:54:39.333Z,102366.91
2023-02-27T06:57:06.042Z,102384.97
2023-02-27T06:59:32.574Z,102345.69
2023-02-27T07:02:00.511Z,102384.91
2023-02-27T07:04:26.971Z,102400.16
2023-02-27T07:07:33.185Z,102392.19
2023-02-27T07:09:39.870Z,102381.47
2023-02-27T07:12:07.979Z,102399.72
2023-02-27T07:14:34.779Z,102397.34
2023-02-27T07:17:04.396Z,102399.22
2023-02-27T07:19:36.161Z,102403.44
2023-02-27T07:22:02.669Z,102409.47
2023-02-27T07:24:29.123Z,102398.38
2023-02-27T07:26:55.623Z,102402.72
2023-02-27T07:29:22.516Z,102405.19
2023-02-27T07:31:49.042Z,102409.94
2023-02-27T07:34:15.710Z,102411.19
2023-02-27T07:36:43.458Z,102411.13
2023-02-27T07:39:12.788Z,102398.53
2023-02-27T07:41:39.313Z,102420.38
2023-02-27T07:44:08.479Z,102401.03
2023-02-27T07:46:35.910Z,102401.09
2023-02-27T07:49:02.655Z,102414.63
2023-02-27T07:51:29.406Z,102415.47
2023-02-27T07:53:58.965Z,102411.25
2023-02-27T07:56:27.826Z,102418.03
2023-02-27T07:58:54.725Z,102435.47
2023-02-27T08:01:21.357Z,102435.09
2023-02-27T08:03:47.948Z,102442.19
2023-02-27T08:06:14.349Z,102428.91
2023-02-27T08:08:40.818Z,102435.81
2023-02-27T08:11:07.325Z,102428.13
2023-02-27T08:14:00.123Z,102441.41
2023-02-27T08:16:21.212Z,102442.22
2023-02-27T08:18:47.827Z,102425.13
2023-02-27T08:21:14.319Z,102432.94
2023-02-27T08:23:42.625Z,102424.81
2023-02-27T08:26:09.254Z,102428.19
2023-02-27T08:28:35.685Z,102423.44
2023-02-27T08:31:02.210Z,102417.13
2023-02-27T08:33:28.746Z,102425.38
2023-02-27T08:35:55.758Z,102433.25
2023-02-27T08:38:22.861Z,102426.75
2023-02-27T08:40:54.901Z,102430.59
2023-02-27T08:43:22.734Z,102413.72
2023-02-27T08:45:50.108Z,102417.34
2023-02-27T08:48:18.384Z,102429.59
2023-02-27T08:50:46.239Z,102428.63
2023-02-27T08:53:13.506Z,102435.72
2023-02-27T08:55:40.055Z,102435.03
2023-02-27T08:58:06.520Z,102436.81
2023-02-27T09:00:32.988Z,102437.16
2023-02-27T09:03:00.581Z,102432.66
2023-02-27T09:05:28.116Z,102435.75
2023-02-27T09:07:54.782Z,102434.34
2023-02-27T09:10:21.548Z,102435.09
2023-02-27T09:12:49.248Z,102428.44
2023-02-27T09:15:15.828Z,102440.34
2023-02-27T09:17:42.304Z,102434.50
2023-02-27T09:20:09.867Z,102438.91
2023-02-27T09:22:36.327Z,102439.41
2023-02-27T09:25:03.265Z,102441.06
2023-02-27T09:27:29.757Z,102441.94
2023-02-27T09:29:56.429Z,102441.19
2023-02-27T09:32:23.578Z,102437.88
2023-02-27T09:34:50.412Z,102442.53
2023-02-27T09:37:18.109Z,102437.81
2023-02-27T09:39:46.353Z,102430.78
2023-02-27T09:42:20.899Z,102445.34
2023-02-27T09:45:02.932Z,102437.03
2023-02-27T09:47:39.686Z,102433.41
2023-02-27T09:50:24.517Z,102432.97
2023-02-27T09:52:51.093Z,102430.06
2023-02-27T09:55:20.445Z,102441.44
2023-02-27T09:57:58.955Z,102439.03
2023-02-27T10:00:43.569Z,102449.69
2023-02-27T10:03:29.571Z,102442.25
2023-02-27T10:06:08.413Z,102439.09
2023-02-27T10:08:34.815Z,102441.03
2023-02-27T10:11:06.932Z,102425.66
2023-02-27T10:13:41.333Z,102442.53
2023-02-27T10:16:13.212Z,102443.19
2023-02-27T10:18:54.144Z,102430.19
2023-02-27T10:21:33.208Z,102390.81
2023-02-27T10:24:07.402Z,102430.25
2023-02-27T10:26:39.487Z,102431.34
2023-02-27T10:29:29.284Z,102415.94
2023-02-27T10:32:21.127Z,102419.66
2023-02-27T10:35:16.393Z,102435.84
2023-02-27T10:37:47.028Z,102423.09
2023-02-27T10:40:16.298Z,102434.59
2023-02-27T10:42:43.316Z,102432.63
2023-02-27T10:45:17.538Z,102427.81
2023-02-27T10:47:44.269Z,102430.75
2023-02-27T10:50:29.169Z,102431.13
2023-02-27T10:52:58.681Z,102422.81
2023-02-27T10:55:32.119Z,102411.88
2023-02-27T10:58:01.412Z,102429.81
2023-02-27T11:00:31.490Z,102410.88
2023-02-27T11:02:58.576Z,102426.38
2023-02-27T11:05:31.640Z,102416.50
2023-02-27T11:08:12.820Z,102423.03
2023-02-27T11:10:53.928Z,102419.22
2023-02-27T11:13:22.930Z,102413.84
2023-02-27T11:16:07.294Z,102414.69
2023-02-27T11:18:35.609Z,102422.13
2023-02-27T11:21:22.658Z,102425.50
2023-02-27T11:23:50.436Z,102413.50
2023-02-27T11:26:22.371Z,102408.16
2023-02-27T11:29:08.331Z,102396.72
2023-02-27T11:31:37.152Z,102409.09
2023-02-27T11:34:04.916Z,102403.13
2023-02-27T11:36:47.316Z,102403.78
2023-02-27T11:39:25.906Z,102404.91
2023-02-27T11:41:54.093Z,102358.84
2023-02-27T11:44:34.010Z,102387.25
2023-02-27T11:47:23.460Z,102387.78
2023-02-27T11:50:32.573Z,102386.53
2023-02-27T11:53:25.195Z,102375.06
2023-02-27T11:55:55.276Z,102364.38
2023-02-27T11:58:26.009Z,102365.44
2023-02-27T12:01:03.884Z,102356.13
2023-02-27T12:03:35.169Z,102365.91
2023-02-27T12:06:10.426Z,102359.28
2023-02-27T12:08:46.011Z,102356.50
2023-02-27T12:11:31.160Z,102352.91
2023-02-27T12:14:13.253Z,102353.38
2023-02-27T12:16:51.237Z,102353.59
2023-02-27T12:19:34.158Z,102353.44
2023-02-27T12:22:09.264Z,102341.22
2023-02-27T12:24:53.010Z,102347.88
2023-02-27T12:27:24.853Z,102342.34
2023-02-27T12:29:56.311Z,102346.91
2023-02-27T12:32:22.888Z,102346.94
2023-02-27T12:34:59.061Z,102332.72
2023-02-27T12:37:29.047Z,102328.81
2023-02-27T12:39:59.165Z,102321.03
2023-02-27T12:43:00.381Z,102326.16
2023-02-27T12:45:48.214Z,102319.66
2023-02-27T12:48:23.846Z,102318.47
2023-02-27T12:51:17.184Z,102304.13
2023-02-27T12:54:12.095Z,102305.72
2023-02-27T12:57:03.657Z,102309.38
2023-02-27T12:59:36.278Z,102308.41
2023-02-27T13:02:17.952Z,102303.91
2023-02-27T13:04:47.573Z,102298.88
2023-02-27T13:07:25.872Z,102316.38
2023-02-27T13:09:57.005Z,102313.19
2023-02-27T13:12:50.970Z,102305.22
2023-02-27T13:15:42.043Z,102301.50
2023-02-27T13:18:34.197Z,102304.03
2023-02-27T13:21:11.194Z,102304.03
2023-02-27T13:23:37.560Z,102299.31
2023-02-27T13:26:15.346Z,102288.78
2023-02-27T13:28:42.067Z,102299.75
2023-02-27T13:31:47.709Z,102292.09
2023-02-27T13:34:22.029Z,102275.84
2023-02-27T13:36:57.796Z,102289.25
2023-02-27T13:39:52.612Z,102286.41
2023-02-27T13:42:27.985Z,102289.78
2023-02-27T13:44:56.900Z,102283.84
2023-02-27T13:47:29.499Z,102296.34
2023-02-27T13:50:02.023Z,102292.75
2023-02-27T13:52:33.913Z,102284.84
2023-02-27T13:55:11.160Z,102292.91
2023-02-27T13:57:38.828Z,102288.75
2023-02-27T14:00:20.173Z,102288.66
2023-02-27T14:03:20.441Z,102293.25
2023-02-27T14:05:51.458Z,102286.97
2023-02-27T14:08:28.069Z,102287.19
2023-02-27T14:11:00.471Z,102292.22
2023-02-27T14:13:45.623Z,102283.34
2023-02-27T14:16:37.220Z,102284.22
2023-02-27T14:19:28.457Z,102277.44
2023-02-27T14:21:56.740Z,102291.50
2023-02-27T14:24:33.383Z,102273.44
2023-02-27T14:27:00.983Z,102289.16
2023-02-27T14:29:33.403Z,102300.41
2023-02-27T14:32:04.253Z,102289.25
2023-02-27T14:34:31.258Z,102289.66
2023-02-27T14:37:02.427Z,102287.41
2023-02-27T14:39:33.318Z,102287.19
2023-02-27T14:42:11.873Z,102279.81
2023-02-27T14:44:43.573Z,102280.16
2023-02-27T14:47:25.561Z,102286.69
2023-02-27T14:50:12.146Z,102283.19
2023-02-27T14:52:43.196Z,102288.97
2023-02-27T14:55:18.971Z,102291.41
2023-02-27T14:57:57.628Z,102296.31
2023-02-27T15:01:03.411Z,102300.59
2023-02-27T15:04:00.501Z,102285.00
2023-02-27T15:06:40.663Z,102287.16
2023-02-27T15:09:07.569Z,102286.44
2023-02-27T15:11:34.391Z,102276.09
2023-02-27T15:14:06.262Z,102293.84
2023-02-27T15:16:38.404Z,102306.78
2023-02-27T15:19:16.979Z,102300.75
2023-02-27T15:21:49.791Z,102299.31
2023-02-27T15:24:49.337Z,102305.75
2023-02-27T15:27:20.218Z,102307.38
2023-02-27T15:29:56.289Z,102299.50
2023-02-27T15:32:30.889Z,102309.78
2023-02-27T15:35:01.054Z,102308.84
2023-02-27T15:37:33.468Z,102313.41
2023-02-27T15:40:01.311Z,102310.81
2023-02-27T15:42:31.886Z,102317.56
2023-02-27T15:44:59.504Z,102309.78
2023-02-27T15:47:28.731Z,102325.16
2023-02-27T15:50:01.192Z,102331.09
2023-02-27T15:52:38.623Z,102288.19
2023-02-27T15:55:13.328Z,102332.53
2023-02-27T15:57:40.933Z,102321.16
2023-02-27T16:00:11.117Z,102316.13
2023-02-27T16:02:45.604Z,102317.78
2023-02-27T16:05:18.690Z,102319.56
2023-02-27T16:07:47.086Z,102322.47
2023-02-27T16:10:24.046Z,102318.97
2023-02-27T16:12:50.822Z,102313.97
2023-02-27T16:15:31.969Z,102325.84
2023-02-27T16:18:09.049Z,102330.31
2023-02-27T16:20:50.550Z,102333.97
2023-02-27T16:23:22.129Z,102330.88
2023-02-27T16:26:23.541Z,102345.38
2023-02-27T16:28:56.254Z,102349.50
2023-02-27T16:31:24.950Z,102343.44
2023-02-27T16:33:52.967Z,102350.34
2023-02-27T16:36:23.263Z,102346.16
2023-02-27T16:38:49.977Z,102339.13
2023-02-27T16:41:19.209Z,102341.13
2023-02-27T16:43:47.084Z,102332.13
2023-02-27T16:46:20.120Z,102338.84
2023-02-27T16:49:14.160Z,102338.19
2023-02-27T16:51:45.489Z,102347.78
2023-02-27T16:54:13.666Z,102342.56
2023-02-27T16:56:40.676Z,102333.59
2023-02-27T16:59:07.938Z,102330.19
2023-02-27T17:01:34.851Z,102350.91
2023-02-27T17:04:01.925Z,102353.69
2023-02-27T17:06:29.793Z,102354.59
2023-02-27T17:08:57.781Z,102365.66
2023-02-27T17:11:24.379Z,102358.19
2023-02-27T17:13:51.744Z,102363.56
2023-02-27T17:16:18.255Z,102364.47
2023-02-27T17:18:44.717Z,102379.88
2023-02-27T17:21:11.159Z,102366.25
2023-02-27T17:23:37.584Z,102370.53
2023-02-27T17:26:04.570Z,102380.91
2023-02-27T17:28:31.085Z,102381.00
2023-02-27T17:30:57.763Z,102386.28
2023-02-27T17:33:24.280Z,102403.63
2023-02-27T17:35:52.390Z,102387.69
2023-02-27T17:38:18.902Z,102408.16
2023-02-27T17:40:45.305Z,102402.13
2023-02-27T17:43:11.740Z,102403.88
2023-02-27T17:45:38.448Z,102407.31
2023-02-27T17:48:05.079Z,102411.75
2023-02-27T17:50:32.117Z,102406.47
2023-02-27T17:52:58.555Z,102410.75
2023-02-27T17:55:25.028Z,102417.84
2023-02-27T17:57:51.451Z,102411.00
2023-02-27T18:00:18.277Z,102412.75
2023-02-27T18:02:45.247Z,102421.41
2023-02-27T18:05:12.003Z,102418.03
2023-02-27T18:07:38.760Z,102422.44
2023-02-27T18:10:06.765Z,102428.59
2023-02-27T18:12:33.223Z,102415.84
2023-02-27T18:14:59.763Z,102439.09
2023-02-27T18:17:26.228Z,102413.66
2023-02-27T18:19:52.819Z,102445.28
2023-02-27T18:22:21.635Z,102440.13
2023-02-27T18:24:49.107Z,102434.19
2023-02-27T18:27:15.548Z,102437.69
2023-02-27T18:29:42.014Z,102435.16
2023-02-27T18:32:08.919Z,102436.03
2023-02-27T18:34:35.729Z,102441.34
2023-02-27T18:37:02.227Z,102428.56
2023-02-27T18:39:28.721Z,102429.44
2023-02-27T18:41:55.162Z,102429.44
2023-02-27T18:44:21.716Z,102427.75
2023-02-27T18:46:48.243Z,102428.66
2023-02-27T18:49:15.700Z,102435.50
2023-02-27T18:51:42.370Z,102428.53
2023-02-27T18:54:12.467Z,102423.41
2023-02-27T18:56:38.892Z,102429.47
2023-02-27T18:59:06.739Z,102426.00
2023-02-27T19:01:37.837Z,102426.00
2023-02-27T19:04:06.390Z,102436.41
2023-02-27T19:06:35.608Z,102422.75
2023-02-27T19:09:05.180Z,102415.84
2023-02-27T19:11:35.580Z,102418.50
2023-02-27T19:14:04.541Z,102417.69
2023-02-27T19:16:31.717Z,102419.47
2023-02-27T19:18:59.673Z,102416.06
2023-02-27T19:21:26.961Z,102403.28
2023-02-27T19:23:53.854Z,102411.03
2023-02-27T19:26:20.956Z,102412.84
2023-02-27T19:28:54.151Z,102418.00
2023-02-27T19:31:23.523Z,102426.56
2023-02-27T19:33:50.158Z,102415.44
2023-02-27T19:36:19.772Z,102427.38
2023-02-27T19:38:46.287Z,102418.81
2023-02-27T19:41:14.236Z,102422.22
2023-02-27T19:43:41.239Z,102416.19
2023-02-27T19:46:10.231Z,102413.59
2023-02-27T19:48:37.374Z,102418.69
2023-02-27T19:51:09.263Z,102424.72
2023-02-27T19:53:37.232Z,102417.84
2023-02-27T19:56:06.427Z,102415.19
2023-02-27T19:58:33.804Z,102417.75
2023-02-27T20:01:00.749Z,102415.19
2023-02-27T20:03:27.396Z,102399.78
2023-02-27T20:05:53.817Z,102407.53
2023-02-27T20:08:20.858Z,102398.06
2023-02-27T20:10:55.285Z,102405.91
2023-02-27T20:13:21.749Z,102417.94
2023-02-27T20:16:05.835Z,102417.25
2023-02-27T20:18:32.935Z,102402.78
2023-02-27T20:21:05.807Z,102404.63
2023-02-27T20:23:34.098Z,102409.66
2023-02-27T20:26:00.654Z,102405.50
2023-02-27T20:28:28.953Z,102420.13
2023-02-27T20:30:55.543Z,102421.06
2023-02-27T20:33:22.116Z,102415.13
2023-02-27T20:35:48.594Z,102418.56
2023-02-27T20:38:17.031Z,102401.50
2023-02-27T20:40:43.503Z,102417.72
2023-02-27T20:43:09.963Z,102417.84
2023-02-27T20:45:39.849Z,102425.59
2023-02-27T20:48:07.723Z,102417.88
2023-02-27T20:50:34.835Z,102419.69
2023-02-27T20:53:01.392Z,102409.31
2023-02-27T20:55:27.876Z,102402.63
2023-02-27T20:57:54.320Z,102380.59
2023-02-27T21:00:21.572Z,102411.38
2023-02-27T21:02:48.076Z,102425.88
2023-02-27T21:05:15.249Z,102414.75
2023-02-27T21:07:42.925Z,102420.75
2023-02-27T21:10:10.121Z,102416.59
2023-02-27T21:12:36.592Z,102430.31
2023-02-27T21:15:03.471Z,102429.50
2023-02-27T21:17:29.916Z,102423.53
2023-02-27T21:19:56.452Z,102429.56
2023-02-27T21:22:23.046Z,102409.13
2023-02-27T21:24:51.940Z,102412.59
2023-02-27T21:27:20.781Z,102429.69
2023-02-27T21:29:48.721Z,102431.34
2023-02-27T21:32:15.568Z,102408.31
2023-02-27T21:34:42.105Z,102424.59
2023-02-27T21:37:10.532Z,102427.13
2023-02-27T21:39:36.999Z,102432.28
2023-02-27T21:42:03.942Z,102435.81
2023-02-27T21:44:31.968Z,102428.06
2023-02-27T21:46:58.602Z,102424.59
2023-02-27T21:49:27.861Z,102427.19
2023-02-27T21:51:55.269Z,102418.69
2023-02-27T21:54:22.436Z,102424.59
2023-02-27T21:56:49.421Z,102412.59
2023-02-27T21:59:17.250Z,102428.88
2023-02-27T22:01:47.340Z,102393.88
2023-02-27T22:04:18.685Z,102422.16
2023-02-27T22:06:45.177Z,102418.72
2023-02-27T22:09:11.827Z,102415.31
2023-02-27T22:11:40.776Z,102423.91
2023-02-27T22:14:08.436Z,102419.72
2023-02-27T22:16:35.614Z,102418.06
2023-02-27T22:19:10.528Z,102422.41
2023-02-27T22:21:38.344Z,102425.09
2023-02-27T22:24:06.230Z,102424.22
2023-02-27T22:26:33.342Z,102409.75
2023-02-27T22:28:59.974Z,102434.53
2023-02-27T22:31:32.689Z,102431.13
2023-02-27T22:34:03.552Z,102428.63
2023-02-27T22:36:31.424Z,102440.66
2023-02-27T22:38:58.911Z,102438.16
2023-02-27T22:41:34.005Z,102449.31
2023-02-27T22:44:01.970Z,102441.59
2023-02-27T22:46:33.629Z,102442.50
2023-02-27T22:49:03.091Z,102445.97
2023-02-27T22:51:30.377Z,102446.03
2023-02-27T22:53:59.148Z,102448.66
2023-02-27T22:56:26.465Z,102447.81
2023-02-27T22:58:53.478Z,102441.75
2023-02-27T23:01:23.393Z,102446.94
2023-02-27T23:03:51.960Z,102457.25
2023-02-27T23:06:25.061Z,102455.53
2023-02-27T23:08:52.096Z,102459.00
2023-02-27T23:11:20.468Z,102463.31
2023-02-27T23:13:47.620Z,102461.66
2023-02-27T23:16:14.321Z,102459.09
2023-02-27T23:18:48.826Z,102463.47
2023-02-27T23:21:16.976Z,102466.06
2023-02-27T23:23:43.731Z,102449.88
2023-02-27T23:26:10.171Z,102469.56
2023-02-27T23:28:37.510Z,102468.72
2023-02-27T23:31:05.917Z,102466.19
2023-02-27T23:33:32.584Z,102468.81
2023-02-27T23:35:59.188Z,102461.16
2023-02-27T23:38:26.038Z,102473.13
2023-02-27T23:40:53.055Z,102476.56
2023-02-27T23:43:19.838Z,102477.47
2023-02-27T23:45:46.464Z,102462.09
2023-02-27T23:48:13.030Z,102469.00
2023-02-27T23:50:43.724Z,102466.41
2023-02-27T23:53:13.327Z,102480.97
2023-02-27T23:55:40.870Z,102477.56
2023-02-27T23:58:09.576Z,102487.84
